createdAt,value
2022-08-31T00:00:09.166Z,13.50
2022-08-31T00:02:56.389Z,13.50
2022-08-31T00:05:25.096Z,13.50
2022-08-31T00:07:53.345Z,13.40
2022-08-31T00:10:32.416Z,13.40
2022-08-31T00:13:02.559Z,13.40
2022-08-31T00:15:31.144Z,13.30
2022-08-31T00:18:00.267Z,13.30
2022-08-31T00:20:33.521Z,13.30
2022-08-31T00:23:05.036Z,13.30
2022-08-31T00:25:34.149Z,13.30
2022-08-31T00:28:02.230Z,13.30
2022-08-31T00:30:30.912Z,13.30
2022-08-31T00:33:00.823Z,13.30
2022-08-31T00:35:29.752Z,13.30
2022-08-31T00:37:57.982Z,13.30
2022-08-31T00:40:26.972Z,13.20
2022-08-31T00:42:55.244Z,13.20
2022-08-31T00:45:23.699Z,13.10
2022-08-31T00:47:52.247Z,13.10
2022-08-31T00:50:24.732Z,13.10
2022-08-31T00:52:56.818Z,13.10
2022-08-31T00:55:29.945Z,13.00
2022-08-31T00:58:00.777Z,13.00
2022-08-31T01:00:30.365Z,13.00
2022-08-31T01:03:01.674Z,13.00
2022-08-31T01:05:32.122Z,12.90
2022-08-31T01:08:01.929Z,12.90
2022-08-31T01:10:34.315Z,12.80
2022-08-31T01:13:02.527Z,12.80
2022-08-31T01:15:31.936Z,12.80
2022-08-31T01:18:02.511Z,12.80
2022-08-31T01:20:38.422Z,12.80
2022-08-31T01:23:19.222Z,12.80
2022-08-31T01:25:49.169Z,12.70
2022-08-31T01:28:17.225Z,12.70
2022-08-31T01:30:57.845Z,12.70
2022-08-31T01:33:25.648Z,12.70
2022-08-31T01:35:53.426Z,12.70
2022-08-31T01:38:23.161Z,12.70
2022-08-31T01:40:55.039Z,12.60
2022-08-31T01:43:23.208Z,12.60
2022-08-31T01:45:51.361Z,12.60
2022-08-31T01:48:19.537Z,12.60
2022-08-31T01:50:47.561Z,12.50
2022-08-31T01:53:15.903Z,12.50
2022-08-31T01:55:46.332Z,12.50
2022-08-31T01:58:15.018Z,12.50
2022-08-31T02:00:44.025Z,12.50
2022-08-31T02:03:12.445Z,12.40
2022-08-31T02:05:40.851Z,12.40
2022-08-31T02:08:10.195Z,12.40
2022-08-31T02:10:38.735Z,12.40
2022-08-31T02:13:08.256Z,12.30
2022-08-31T02:15:36.158Z,12.30
2022-08-31T02:18:03.952Z,12.30
2022-08-31T02:20:31.897Z,12.30
2022-08-31T02:23:03.209Z,12.20
2022-08-31T02:25:31.991Z,12.20
2022-08-31T02:27:59.877Z,12.20
2022-08-31T02:30:29.385Z,12.20
2022-08-31T02:32:57.219Z,12.10
2022-08-31T02:35:25.214Z,12.10
2022-08-31T02:37:52.974Z,12.10
2022-08-31T02:40:20.871Z,12.10
2022-08-31T02:42:53.980Z,12.10
2022-08-31T02:45:22.358Z,12.10
2022-08-31T02:47:51.813Z,12.00
2022-08-31T02:50:19.648Z,12.00
2022-08-31T02:52:48.001Z,12.00
2022-08-31T02:55:15.823Z,12.00
2022-08-31T02:57:43.629Z,11.90
2022-08-31T03:00:12.638Z,11.90
2022-08-31T03:02:41.425Z,11.90
2022-08-31T03:05:11.712Z,11.90
2022-08-31T03:07:40.722Z,11.90
2022-08-31T03:10:11.417Z,11.80
2022-08-31T03:12:39.505Z,11.80
2022-08-31T03:15:09.565Z,11.80
2022-08-31T03:17:37.382Z,11.80
2022-08-31T03:20:06.995Z,11.70
2022-08-31T03:22:36.165Z,11.70
2022-08-31T03:25:05.849Z,11.70
2022-08-31T03:27:34.131Z,11.70
2022-08-31T03:30:02.072Z,11.70
2022-08-31T03:32:30.886Z,11.70
2022-08-31T03:35:00.554Z,11.60
2022-08-31T03:37:28.713Z,11.60
2022-08-31T03:39:58.001Z,11.60
2022-08-31T03:42:26.303Z,11.60
2022-08-31T03:44:56.013Z,11.60
2022-08-31T03:47:25.193Z,11.50
2022-08-31T03:49:56.404Z,11.50
2022-08-31T03:52:24.198Z,11.50
2022-08-31T03:54:51.975Z,11.50
2022-08-31T03:57:21.142Z,11.40
2022-08-31T03:59:48.884Z,11.40
2022-08-31T04:02:16.702Z,11.40
2022-08-31T04:04:44.479Z,11.40
2022-08-31T04:07:12.228Z,11.40
2022-08-31T04:09:40.065Z,11.30
2022-08-31T04:12:08.027Z,11.30
2022-08-31T04:14:37.161Z,11.30
2022-08-31T04:17:04.970Z,11.30
2022-08-31T04:19:32.869Z,11.30
2022-08-31T04:22:00.676Z,11.30
2022-08-31T04:24:29.463Z,11.30
2022-08-31T04:26:57.279Z,11.30
2022-08-31T04:29:25.146Z,11.20
2022-08-31T04:31:54.378Z,11.30
2022-08-31T04:34:22.178Z,11.30
2022-08-31T04:36:50.049Z,11.30
2022-08-31T04:39:18.197Z,11.30
2022-08-31T04:41:47.580Z,11.30
2022-08-31T04:44:19.691Z,11.20
2022-08-31T04:46:48.718Z,11.20
2022-08-31T04:49:17.944Z,11.30
2022-08-31T04:51:45.743Z,11.30
2022-08-31T04:54:14.854Z,11.30
2022-08-31T04:56:45.789Z,11.30
2022-08-31T04:59:16.491Z,11.30
2022-08-31T05:01:46.534Z,11.30
2022-08-31T05:04:15.960Z,11.40
2022-08-31T05:06:47.507Z,11.40
2022-08-31T05:09:17.581Z,11.40
2022-08-31T05:11:52.222Z,11.40
2022-08-31T05:14:23.651Z,11.50
2022-08-31T05:16:52.471Z,11.50
2022-08-31T05:19:23.549Z,11.50
2022-08-31T05:21:52.853Z,11.60
2022-08-31T05:24:31.605Z,11.60
2022-08-31T05:26:59.677Z,11.60
2022-08-31T05:29:28.267Z,11.60
2022-08-31T05:31:56.765Z,11.70
2022-08-31T05:34:24.996Z,11.70
2022-08-31T05:36:58.499Z,11.70
2022-08-31T05:39:26.670Z,11.80
2022-08-31T05:41:55.213Z,11.80
2022-08-31T05:44:28.651Z,11.90
2022-08-31T05:47:03.644Z,11.90
2022-08-31T05:49:32.574Z,12.00
2022-08-31T05:52:02.185Z,12.00
2022-08-31T05:54:30.228Z,12.10
2022-08-31T05:57:01.270Z,12.20
2022-08-31T05:59:29.789Z,12.20
2022-08-31T06:01:57.715Z,12.30
2022-08-31T06:04:26.333Z,12.40
2022-08-31T06:06:54.167Z,12.50
2022-08-31T06:09:23.306Z,12.60
2022-08-31T06:11:54.039Z,12.70
2022-08-31T06:14:22.766Z,12.90
2022-08-31T06:16:51.621Z,13.00
2022-08-31T06:19:20.692Z,13.10
2022-08-31T06:21:51.406Z,13.30
2022-08-31T06:24:20.275Z,13.40
2022-08-31T06:26:56.749Z,13.50
2022-08-31T06:29:26.481Z,13.60
2022-08-31T06:31:54.640Z,13.80
2022-08-31T06:34:25.662Z,13.90
2022-08-31T06:36:53.518Z,14.00
2022-08-31T06:39:21.501Z,14.10
2022-08-31T06:41:52.569Z,14.20
2022-08-31T06:44:22.270Z,14.30
2022-08-31T06:46:50.154Z,14.50
2022-08-31T06:49:19.295Z,14.60
2022-08-31T06:51:47.516Z,14.70
2022-08-31T06:54:28.923Z,14.80
2022-08-31T06:56:59.736Z,14.90
2022-08-31T06:59:29.796Z,15.00
2022-08-31T07:01:58.836Z,15.10
2022-08-31T07:04:27.760Z,15.20
2022-08-31T07:06:55.521Z,15.30
2022-08-31T07:09:23.749Z,15.40
2022-08-31T07:11:53.554Z,15.50
2022-08-31T07:14:24.323Z,15.60
2022-08-31T07:16:53.676Z,15.70
2022-08-31T07:19:22.023Z,15.80
2022-08-31T07:21:54.211Z,15.90
2022-08-31T07:24:25.210Z,16.00
2022-08-31T07:26:57.999Z,16.10
2022-08-31T07:29:30.085Z,16.10
2022-08-31T07:31:59.196Z,16.30
2022-08-31T07:34:30.134Z,16.30
2022-08-31T07:37:16.998Z,16.40
2022-08-31T07:40:17.885Z,16.50
2022-08-31T07:42:46.989Z,16.60
2022-08-31T07:45:22.875Z,16.60
2022-08-31T07:47:51.331Z,16.60
2022-08-31T07:50:20.272Z,16.70
2022-08-31T07:52:54.157Z,16.80
2022-08-31T07:55:24.438Z,16.90
2022-08-31T07:57:54.702Z,16.90
2022-08-31T08:00:27.950Z,17.00
2022-08-31T08:02:56.052Z,17.10
2022-08-31T08:05:29.041Z,17.10
2022-08-31T08:08:09.526Z,17.20
2022-08-31T08:10:41.892Z,17.20
2022-08-31T08:13:12.532Z,17.30
2022-08-31T08:15:41.896Z,17.30
2022-08-31T08:18:10.784Z,17.40
2022-08-31T08:20:39.807Z,17.50
2022-08-31T08:23:15.007Z,17.50
2022-08-31T08:25:43.603Z,17.60
2022-08-31T08:28:38.151Z,17.70
2022-08-31T08:31:07.736Z,17.80
2022-08-31T08:33:36.774Z,17.80
2022-08-31T08:36:08.560Z,17.80
2022-08-31T08:38:39.215Z,17.90
2022-08-31T08:41:13.649Z,18.00
2022-08-31T08:43:44.248Z,18.10
2022-08-31T08:47:34.329Z,18.10
2022-08-31T08:49:18.775Z,18.20
2022-08-31T08:51:49.764Z,18.30
2022-08-31T08:54:27.436Z,18.30
2022-08-31T08:56:55.704Z,18.40
2022-08-31T08:59:23.497Z,18.40
2022-08-31T09:01:56.271Z,18.50
2022-08-31T09:04:44.208Z,18.50
2022-08-31T09:07:30.782Z,18.60
2022-08-31T09:10:06.335Z,18.60
2022-08-31T09:12:44.474Z,18.70
2022-08-31T09:15:37.195Z,18.80
2022-08-31T09:18:16.155Z,18.90
2022-08-31T09:20:44.039Z,19.00
2022-08-31T09:23:14.273Z,19.10
2022-08-31T09:25:52.190Z,19.10
2022-08-31T09:28:33.896Z,19.20
2022-08-31T09:31:02.136Z,19.30
2022-08-31T09:33:34.098Z,19.40
2022-08-31T09:36:22.505Z,19.50
2022-08-31T09:38:50.865Z,19.50
2022-08-31T09:41:30.609Z,19.60
2022-08-31T09:44:20.785Z,19.60
2022-08-31T09:46:49.575Z,19.60
2022-08-31T09:49:23.896Z,19.60
2022-08-31T09:51:52.195Z,19.50
2022-08-31T09:54:44.420Z,19.60
2022-08-31T09:57:17.516Z,19.70
2022-08-31T09:59:47.944Z,19.90
2022-08-31T10:02:33.605Z,19.90
2022-08-31T10:05:07.173Z,20.00
2022-08-31T10:07:41.930Z,20.10
2022-08-31T10:10:30.171Z,20.20
2022-08-31T10:13:05.213Z,20.30
2022-08-31T10:15:39.371Z,20.40
2022-08-31T10:18:13.858Z,20.50
2022-08-31T10:20:48.779Z,20.50
2022-08-31T10:23:22.408Z,20.60
2022-08-31T10:25:58.313Z,20.70
2022-08-31T10:28:32.744Z,20.70
2022-08-31T10:31:04.414Z,20.70
2022-08-31T10:33:51.935Z,20.80
2022-08-31T10:36:21.149Z,20.80
2022-08-31T10:38:50.443Z,20.80
2022-08-31T10:41:25.663Z,20.90
2022-08-31T10:44:06.979Z,20.90
2022-08-31T10:46:35.743Z,21.00
2022-08-31T10:49:05.681Z,21.00
2022-08-31T10:51:46.188Z,21.10
2022-08-31T10:54:28.683Z,21.20
2022-08-31T10:57:07.711Z,21.40
2022-08-31T10:59:46.143Z,21.40
2022-08-31T11:02:38.566Z,21.50
2022-08-31T11:05:19.931Z,21.50
2022-08-31T11:07:55.792Z,21.40
2022-08-31T11:10:32.450Z,21.40
2022-08-31T11:13:04.122Z,21.40
2022-08-31T11:15:50.413Z,21.40
2022-08-31T11:18:50.590Z,21.40
2022-08-31T11:21:52.529Z,21.30
2022-08-31T11:24:56.052Z,21.20
2022-08-31T11:27:26.099Z,21.20
2022-08-31T11:29:58.265Z,21.00
2022-08-31T11:32:34.231Z,20.90
2022-08-31T11:35:08.278Z,20.70
2022-08-31T11:38:00.584Z,20.60
2022-08-31T11:41:03.627Z,20.60
2022-08-31T11:43:49.075Z,20.80
2022-08-31T11:47:01.060Z,20.90
2022-08-31T11:49:56.775Z,20.90
2022-08-31T11:52:41.031Z,21.10
2022-08-31T11:55:30.672Z,21.30
2022-08-31T11:58:20.855Z,21.40
2022-08-31T12:00:58.227Z,21.60
2022-08-31T12:03:44.101Z,21.70
2022-08-31T12:06:28.169Z,21.80
2022-08-31T12:09:10.023Z,21.80
2022-08-31T12:11:42.680Z,21.90
2022-08-31T12:14:22.125Z,22.00
2022-08-31T12:17:09.590Z,21.90
2022-08-31T12:20:05.921Z,21.90
2022-08-31T12:23:30.790Z,21.70
2022-08-31T12:26:16.227Z,21.50
2022-08-31T12:29:02.585Z,21.30
2022-08-31T12:31:30.707Z,21.10
2022-08-31T12:34:06.275Z,21.10
2022-08-31T12:36:36.535Z,21.20
2022-08-31T12:39:09.820Z,21.40
2022-08-31T12:41:41.864Z,21.60
2022-08-31T12:44:14.250Z,21.80
2022-08-31T12:47:03.918Z,21.90
2022-08-31T12:50:04.756Z,22.10
2022-08-31T12:52:54.101Z,22.30
2022-08-31T12:55:33.441Z,22.40
2022-08-31T12:58:17.684Z,22.50
2022-08-31T13:00:47.032Z,22.60
2022-08-31T13:03:22.474Z,22.80
2022-08-31T13:06:08.507Z,22.90
2022-08-31T13:08:42.881Z,23.00
2022-08-31T13:11:23.560Z,23.00
2022-08-31T13:13:51.694Z,23.00
2022-08-31T13:16:20.064Z,23.10
2022-08-31T13:18:47.957Z,23.10
2022-08-31T13:21:22.249Z,23.10
2022-08-31T13:23:51.926Z,23.10
2022-08-31T13:26:25.418Z,23.10
2022-08-31T13:28:58.731Z,23.20
2022-08-31T13:31:32.063Z,23.20
2022-08-31T13:34:01.821Z,23.20
2022-08-31T13:36:35.038Z,23.20
2022-08-31T13:39:12.372Z,23.20
2022-08-31T13:41:57.384Z,23.20
2022-08-31T13:44:27.945Z,23.20
2022-08-31T13:47:02.780Z,23.20
2022-08-31T13:49:35.946Z,23.20
2022-08-31T13:52:05.614Z,23.30
2022-08-31T13:54:39.477Z,23.30
2022-08-31T13:57:20.906Z,23.30
2022-08-31T13:59:49.428Z,23.10
2022-08-31T14:02:37.116Z,23.10
2022-08-31T14:05:08.551Z,22.90
2022-08-31T14:08:04.947Z,22.80
2022-08-31T14:10:38.076Z,22.90
2022-08-31T14:13:18.432Z,22.90
2022-08-31T14:15:53.440Z,22.90
2022-08-31T14:18:27.319Z,23.00
2022-08-31T14:21:22.754Z,23.00
2022-08-31T14:23:53.675Z,23.10
2022-08-31T14:26:29.217Z,23.20
2022-08-31T14:29:00.441Z,23.30
2022-08-31T14:31:33.947Z,23.40
2022-08-31T14:34:20.516Z,23.40
2022-08-31T14:36:54.064Z,23.30
2022-08-31T14:39:24.848Z,23.20
2022-08-31T14:41:55.602Z,23.20
2022-08-31T14:44:26.972Z,23.10
2022-08-31T14:46:54.919Z,23.10
2022-08-31T14:49:23.195Z,23.10
2022-08-31T14:51:51.072Z,23.10
2022-08-31T14:54:19.015Z,23.10
2022-08-31T14:56:50.178Z,23.10
2022-08-31T14:59:21.977Z,23.00
2022-08-31T15:01:50.666Z,23.00
2022-08-31T15:04:20.633Z,22.80
2022-08-31T15:06:51.022Z,22.70
2022-08-31T15:09:18.786Z,22.60
2022-08-31T15:11:47.148Z,22.50
2022-08-31T15:14:19.411Z,22.30
2022-08-31T15:16:53.466Z,22.10
2022-08-31T15:19:23.066Z,22.00
2022-08-31T15:21:58.663Z,21.90
2022-08-31T15:24:31.473Z,21.80
2022-08-31T15:26:59.581Z,21.60
2022-08-31T15:29:30.940Z,21.60
2022-08-31T15:31:59.774Z,21.50
2022-08-31T15:34:30.193Z,21.40
2022-08-31T15:37:02.079Z,21.30
2022-08-31T15:39:32.972Z,21.30
2022-08-31T15:42:03.023Z,21.30
2022-08-31T15:44:33.512Z,21.20
2022-08-31T15:47:20.573Z,21.10
2022-08-31T15:49:48.664Z,21.10
2022-08-31T15:52:18.964Z,21.10
2022-08-31T15:54:48.561Z,21.10
2022-08-31T15:57:16.382Z,21.10
2022-08-31T15:59:45.957Z,21.10
2022-08-31T16:02:15.631Z,21.10
2022-08-31T16:04:43.840Z,21.20
2022-08-31T16:07:13.047Z,21.20
2022-08-31T16:09:44.657Z,21.30
2022-08-31T16:12:13.662Z,21.30
2022-08-31T16:14:44.950Z,21.30
2022-08-31T16:17:19.679Z,21.30
2022-08-31T16:19:48.150Z,21.40
2022-08-31T16:22:20.810Z,21.40
2022-08-31T16:24:48.952Z,21.30
2022-08-31T16:27:20.921Z,21.40
2022-08-31T16:29:50.737Z,21.40
2022-08-31T16:32:21.027Z,21.40
2022-08-31T16:34:49.456Z,21.40
2022-08-31T16:37:17.313Z,21.50
2022-08-31T16:39:47.037Z,21.50
2022-08-31T16:42:15.584Z,21.40
2022-08-31T16:44:46.848Z,21.40
2022-08-31T16:47:21.064Z,21.30
2022-08-31T16:49:49.992Z,21.20
2022-08-31T16:52:24.271Z,21.20
2022-08-31T16:54:53.158Z,21.20
2022-08-31T16:57:23.557Z,21.10
2022-08-31T16:59:51.910Z,21.00
2022-08-31T17:02:23.102Z,21.00
2022-08-31T17:04:54.830Z,20.90
2022-08-31T17:07:29.267Z,20.90
2022-08-31T17:10:01.803Z,20.80
2022-08-31T17:12:31.937Z,20.80
2022-08-31T17:15:02.399Z,20.70
2022-08-31T17:17:33.061Z,20.70
2022-08-31T17:20:02.604Z,20.60
2022-08-31T17:22:33.646Z,20.60
2022-08-31T17:25:03.674Z,20.50
2022-08-31T17:27:33.386Z,20.50
2022-08-31T17:30:04.949Z,20.40
2022-08-31T17:32:33.183Z,20.30
2022-08-31T17:35:03.113Z,20.30
2022-08-31T17:37:36.182Z,20.20
2022-08-31T17:40:08.032Z,20.20
2022-08-31T17:42:36.940Z,20.10
2022-08-31T17:45:08.100Z,20.00
2022-08-31T17:47:37.755Z,20.00
2022-08-31T17:50:10.168Z,19.90
2022-08-31T17:52:39.132Z,19.90
2022-08-31T17:55:07.714Z,19.90
2022-08-31T17:57:35.651Z,19.80
2022-08-31T18:00:05.018Z,19.70
2022-08-31T18:02:34.928Z,19.70
2022-08-31T18:05:11.851Z,19.60
2022-08-31T18:07:41.689Z,19.60
2022-08-31T18:10:12.994Z,19.50
2022-08-31T18:12:42.221Z,19.50
2022-08-31T18:15:12.292Z,19.40
2022-08-31T18:17:40.634Z,19.40
2022-08-31T18:20:12.433Z,19.30
2022-08-31T18:22:45.355Z,19.30
2022-08-31T18:25:15.072Z,19.30
2022-08-31T18:27:42.884Z,19.30
2022-08-31T18:30:15.098Z,19.20
2022-08-31T18:32:46.138Z,19.20
2022-08-31T18:35:17.460Z,19.20
2022-08-31T18:37:47.767Z,19.10
2022-08-31T18:40:33.530Z,19.10
2022-08-31T18:43:18.901Z,19.10
2022-08-31T18:45:49.274Z,19.00
2022-08-31T18:48:35.236Z,19.00
2022-08-31T18:51:03.628Z,19.00
2022-08-31T18:53:34.589Z,19.00
2022-08-31T18:56:08.081Z,19.00
2022-08-31T18:58:37.094Z,19.00
2022-08-31T19:01:10.154Z,18.90
2022-08-31T19:03:39.359Z,18.90
2022-08-31T19:06:08.012Z,18.80
2022-08-31T19:08:37.166Z,18.80
2022-08-31T19:11:07.638Z,18.70
2022-08-31T19:13:35.544Z,18.70
2022-08-31T19:16:10.886Z,18.70
2022-08-31T19:18:43.985Z,18.60
2022-08-31T19:21:13.807Z,18.50
2022-08-31T19:23:43.557Z,18.50
2022-08-31T19:26:11.583Z,18.40
2022-08-31T19:28:39.370Z,18.40
2022-08-31T19:31:10.414Z,18.40
2022-08-31T19:33:38.208Z,18.40
2022-08-31T19:36:06.595Z,18.30
2022-08-31T19:38:34.387Z,18.30
2022-08-31T19:41:04.179Z,18.30
2022-08-31T19:43:54.935Z,18.20
2022-08-31T19:46:22.828Z,18.20
2022-08-31T19:48:51.002Z,18.10
2022-08-31T19:51:21.031Z,18.10
2022-08-31T19:53:50.310Z,18.10
2022-08-31T19:56:22.088Z,18.00
2022-08-31T19:58:51.899Z,18.00
2022-08-31T20:01:24.066Z,18.00
2022-08-31T20:03:52.762Z,17.90
2022-08-31T20:06:22.245Z,17.90
2022-08-31T20:08:51.020Z,17.80
2022-08-31T20:11:23.004Z,17.80
2022-08-31T20:13:51.322Z,17.70
2022-08-31T20:16:20.541Z,17.70
2022-08-31T20:18:48.711Z,17.60
2022-08-31T20:21:19.895Z,17.60
2022-08-31T20:23:50.376Z,17.50
2022-08-31T20:26:22.714Z,17.50
2022-08-31T20:28:58.750Z,17.40
2022-08-31T20:31:26.991Z,17.30
2022-08-31T20:33:57.233Z,17.30
2022-08-31T20:36:27.903Z,17.20
2022-08-31T20:38:58.244Z,17.10
2022-08-31T20:41:31.171Z,17.00
2022-08-31T20:44:00.910Z,17.00
2022-08-31T20:46:46.348Z,16.90
2022-08-31T20:49:26.641Z,16.90
2022-08-31T20:51:56.143Z,16.80
2022-08-31T20:54:24.674Z,16.70
2022-08-31T20:56:54.974Z,16.70
2022-08-31T20:59:25.032Z,16.60
2022-08-31T21:01:55.235Z,16.60
2022-08-31T21:04:27.145Z,16.50
2022-08-31T21:07:02.361Z,16.50
2022-08-31T21:09:36.641Z,16.40
2022-08-31T21:12:10.374Z,16.40
2022-08-31T21:14:45.511Z,16.30
2022-08-31T21:17:19.130Z,16.30
2022-08-31T21:19:49.072Z,16.20
2022-08-31T21:22:19.101Z,16.20
2022-08-31T21:24:47.430Z,16.10
2022-08-31T21:27:18.072Z,16.10
2022-08-31T21:29:46.900Z,16.00
2022-08-31T21:32:16.326Z,16.00
2022-08-31T21:34:44.138Z,16.00
2022-08-31T21:37:14.493Z,15.90
2022-08-31T21:39:42.716Z,15.90
2022-08-31T21:42:10.595Z,15.80
2022-08-31T21:44:39.823Z,15.80
2022-08-31T21:47:09.819Z,15.70
2022-08-31T21:49:37.693Z,15.70
2022-08-31T21:52:05.521Z,15.60
2022-08-31T21:54:33.358Z,15.60
2022-08-31T21:57:02.671Z,15.60
2022-08-31T21:59:35.022Z,15.50
2022-08-31T22:02:09.175Z,15.50
2022-08-31T22:04:39.996Z,15.50
2022-08-31T22:07:08.497Z,15.40
2022-08-31T22:09:37.552Z,15.40
2022-08-31T22:12:07.339Z,15.40
2022-08-31T22:14:37.522Z,15.30
2022-08-31T22:17:08.286Z,15.30
2022-08-31T22:19:39.041Z,15.20
2022-08-31T22:22:08.745Z,15.20
2022-08-31T22:24:39.619Z,15.20
2022-08-31T22:27:09.797Z,15.20
2022-08-31T22:29:40.333Z,15.10
2022-08-31T22:32:12.925Z,15.10
2022-08-31T22:34:42.015Z,15.00
2022-08-31T22:37:11.210Z,15.00
2022-08-31T22:39:42.293Z,15.00
2022-08-31T22:42:11.836Z,14.90
2022-08-31T22:44:40.521Z,14.90
2022-08-31T22:47:09.993Z,14.90
2022-08-31T22:49:37.820Z,14.90
2022-08-31T22:52:07.323Z,14.80
2022-08-31T22:54:36.451Z,14.80
2022-08-31T22:57:04.860Z,14.70
2022-08-31T22:59:32.669Z,14.70
2022-08-31T23:02:03.548Z,14.70
2022-08-31T23:04:35.006Z,14.70
2022-08-31T23:07:04.734Z,14.60
2022-08-31T23:09:34.230Z,14.60
2022-08-31T23:12:03.871Z,14.60
2022-08-31T23:14:33.052Z,14.60
2022-08-31T23:17:02.626Z,14.50
2022-08-31T23:19:36.710Z,14.50
2022-08-31T23:22:09.175Z,14.50
2022-08-31T23:24:39.562Z,14.50
2022-08-31T23:27:10.446Z,14.40
2022-08-31T23:29:40.905Z,14.40
2022-08-31T23:32:11.093Z,14.40
2022-08-31T23:34:41.671Z,14.40
2022-08-31T23:37:10.956Z,14.40
2022-08-31T23:39:40.786Z,14.40
2022-08-31T23:42:09.172Z,14.40
2022-08-31T23:44:42.168Z,14.40
2022-08-31T23:47:10.979Z,14.30
2022-08-31T23:49:40.559Z,14.30
2022-08-31T23:52:08.647Z,14.30
2022-08-31T23:54:37.323Z,14.30
2022-08-31T23:57:08.455Z,14.30
